Time;durP1;ratioP1;P1;durP2;ratioP2;P2;SDS_P1;SDS_P2;PMS_P1;PMS_P2;Temp;Humidity;BMP_temperature;BMP_pressure;BME280_temperature;BME280_humidity;BME280_pressure;Samples;Min_cycle;Max_cycle;Signal;HPM_P1;HPM_P2
2023/04/29 00:01:24;;;;;;;0.50;0.50;;;15.80;70.00;;;15.92;54.38;94548.88;5032417;28;20207;-43
2023/04/29 00:03:52;;;;;;;0.65;0.65;;;15.90;70.10;;;15.93;54.89;94552.28;5032138;28;20247;-44
2023/04/29 00:06:20;;;;;;;0.50;0.50;;;15.80;70.00;;;15.91;54.67;94552.53;5031832;28;20228;-43
2023/04/29 00:08:47;;;;;;;0.50;0.50;;;15.90;70.00;;;15.92;54.65;94540.94;5032678;28;20291;-43
2023/04/29 00:11:14;;;;;;;0.60;0.60;;;15.80;69.80;;;15.92;54.81;94550.72;5032042;28;20207;-44
2023/04/29 00:13:41;;;;;;;0.52;0.52;;;15.90;70.10;;;15.92;54.36;94546.22;5031811;28;20623;-44
2023/04/29 00:16:09;;;;;;;0.60;0.60;;;15.80;70.00;;;15.92;54.70;94542.78;5032437;28;20188;-43
2023/04/29 00:18:36;;;;;;;0.50;0.50;;;15.80;70.00;;;15.93;54.58;94539.91;5031820;28;20200;-43
2023/04/29 00:21:07;;;;;;;0.70;0.70;;;15.80;70.00;;;15.92;54.54;94540.94;5032141;28;20257;-43
2023/04/29 00:23:34;;;;;;;0.50;0.50;;;15.80;70.00;;;15.93;55.03;94539.06;5031931;28;20200;-44
2023/04/29 00:26:01;;;;;;;0.57;0.57;;;15.80;70.00;;;15.92;54.25;94540.13;5014434;28;20526;-43
2023/04/29 00:28:28;;;;;;;0.50;0.50;;;15.80;70.00;;;15.91;54.82;94536.66;5031667;28;20711;-43
2023/04/29 00:30:55;;;;;;;0.50;0.50;;;15.80;70.00;;;15.92;55.01;94535.63;5031730;28;20192;-43
2023/04/29 00:33:23;;;;;;;0.70;0.70;;;15.80;70.10;;;15.92;54.69;94540.94;5033192;28;20550;-43
2023/04/29 00:35:50;;;;;;;0.50;0.50;;;15.80;70.00;;;15.91;54.54;94531.38;5035117;28;20197;-44
2023/04/29 00:38:17;;;;;;;0.50;0.50;;;15.90;70.20;;;15.92;54.47;94524.28;5017785;28;20666;-43
2023/04/29 00:40:45;;;;;;;0.50;0.50;;;15.90;70.10;;;15.92;54.94;94526.91;5035034;28;20628;-43
2023/04/29 00:43:12;;;;;;;0.60;0.60;;;15.80;70.90;;;15.92;54.54;94533.00;5017622;28;20220;-43
2023/04/29 00:45:39;;;;;;;0.50;0.50;;;15.80;70.00;;;15.90;55.04;94532.41;5017859;28;20192;-43
2023/04/29 00:48:06;;;;;;;0.60;0.60;;;15.80;70.00;;;15.92;54.85;94538.28;5035271;28;20231;-43
2023/04/29 00:50:35;;;;;;;0.55;0.55;;;15.80;70.10;;;15.92;54.64;94540.13;5035049;28;20589;-43
2023/04/29 00:53:02;;;;;;;0.57;0.57;;;15.80;70.10;;;15.90;54.93;94532.41;5034933;28;20192;-43
2023/04/29 00:55:32;;;;;;;0.63;0.63;;;15.80;70.00;;;15.92;54.97;94529.56;5017614;28;20197;-43
2023/04/29 00:58:01;;;;;;;0.50;0.50;;;15.80;70.10;;;15.92;54.51;94529.56;5034835;28;20255;-43
2023/04/29 01:00:29;;;;;;;0.70;0.70;;;15.80;70.10;;;15.91;54.58;94538.53;5034793;28;20275;-43
2023/04/29 01:02:58;;;;;;;0.50;0.50;;;15.80;70.10;;;15.91;54.70;94530.59;5034598;28;20215;-43
2023/04/29 01:05:26;;;;;;;0.50;0.50;;;15.80;70.10;;;15.91;54.77;94533.22;5017012;28;20651;-43
2023/04/29 01:08:21;;;;;;;0.50;0.50;;;15.80;70.10;;;15.90;55.07;94532.41;5017333;28;20210;-43
2023/04/29 01:11:10;;;;;;;0.50;0.50;;;15.80;70.10;;;15.90;54.72;94527.13;5034795;28;20181;-43
2023/04/29 01:13:50;;;;;;;0.60;0.60;;;15.80;70.10;;;15.87;54.55;94514.38;5001076;28;20253;-43
2023/04/29 01:16:24;;;;;;;0.50;0.50;;;15.80;70.10;;;15.88;54.87;94520.47;5017407;28;20208;-43
2023/04/29 01:18:57;;;;;;;0.50;0.50;;;15.80;70.10;;;15.88;54.90;94523.13;5001327;28;20291;-43
2023/04/29 01:21:30;;;;;;;0.40;0.40;;;15.80;70.10;;;15.87;54.86;94524.97;5017213;28;20196;-43
2023/04/29 01:23:57;;;;;;;0.50;0.50;;;15.80;70.10;;;15.89;54.99;94522.09;5034825;28;20294;-43
2023/04/29 01:26:32;;;;;;;0.70;0.70;;;15.80;70.10;;;15.90;54.71;94523.69;5018062;28;20218;-43
2023/04/29 01:29:52;;;;;;;0.50;0.50;;;15.80;70.10;;;15.87;54.73;94522.31;5016987;28;20275;-43
2023/04/29 01:32:49;;;;;;;0.50;0.50;;;15.80;70.20;;;15.84;55.14;94520.13;5019769;28;20215;-43
2023/04/29 01:36:01;;;;;;;0.50;0.50;;;15.80;70.20;;;15.83;55.15;94519.34;5016953;28;20611;-43
2023/04/29 01:39:01;;;;;;;0.50;0.50;;;15.80;70.30;;;15.83;54.82;94523.81;5004704;28;20210;-44
2023/04/29 01:42:01;;;;;;;0.60;0.60;;;15.80;70.20;;;15.82;55.15;94514.25;4995215;28;20192;-43
2023/04/29 01:44:31;;;;;;;0.50;0.50;;;15.80;70.20;;;15.82;54.80;94519.56;5033615;28;20295;-43
2023/04/29 01:47:00;;;;;;;0.50;0.50;;;15.80;70.10;;;15.83;54.74;94518.53;5016725;28;20365;-43
2023/04/29 01:49:36;;;;;;;0.50;0.50;;;15.80;70.20;;;15.83;54.74;94514.06;5001937;28;20180;-43
2023/04/29 01:52:04;;;;;;;0.50;0.50;;;15.80;70.20;;;15.84;55.06;94517.50;5016949;28;20704;-43
2023/04/29 01:54:35;;;;;;;0.50;0.50;;;15.80;70.20;;;15.85;54.83;94521.75;5016485;28;20277;-43
2023/04/29 01:57:03;;;;;;;0.52;0.52;;;15.80;70.30;;;15.84;54.83;94520.94;5017225;28;20284;-43
2023/04/29 01:59:51;;;;;;;0.50;0.50;;;15.80;70.30;;;15.85;54.90;94521.75;5024666;28;20219;-43
2023/04/29 02:02:37;;;;;;;0.50;0.50;;;15.80;70.20;;;15.84;54.79;94523.59;5033966;28;20642;-43
2023/04/29 02:05:14;;;;;;;0.60;0.60;;;15.80;70.30;;;15.84;55.10;94515.66;5016453;28;20278;-43
2023/04/29 02:07:49;;;;;;;0.50;0.50;;;15.80;70.30;;;15.84;54.83;94522.78;5016691;28;20231;-44
2023/04/29 02:10:16;;;;;;;0.45;0.45;;;15.80;70.30;;;15.84;54.81;94510.38;5033974;28;20299;-43
2023/04/29 02:12:46;;;;;;;0.50;0.50;;;15.80;70.30;;;15.84;54.83;94513.03;5016459;28;20207;-43
2023/04/29 02:15:14;;;;;;;0.50;0.50;;;15.80;70.30;;;15.84;54.82;94517.50;5016387;28;20211;-43
2023/04/29 02:17:40;;;;;;;0.50;0.50;;;15.80;70.30;;;15.86;54.83;94518.06;5016277;28;20196;-43
2023/04/29 02:20:09;;;;;;;0.50;0.50;;;15.80;70.30;;;15.87;54.84;94513.56;5016133;28;20538;-44
2023/04/29 02:22:36;;;;;;;0.50;0.50;;;15.80;70.30;;;15.87;55.00;94518.84;5016105;28;20215;-43
2023/04/29 02:25:03;;;;;;;0.50;0.50;;;15.80;70.40;;;15.87;54.85;94516.22;5033494;28;20207;-43
2023/04/29 02:27:30;;;;;;;0.55;0.55;;;15.70;70.20;;;15.87;54.91;94509.09;5016348;28;20534;-43
2023/04/29 02:29:57;;;;;;;0.50;0.50;;;15.80;70.30;;;15.88;55.12;94512.53;5033476;28;20191;-43
2023/04/29 02:32:25;;;;;;;0.75;0.75;;;15.80;70.30;;;15.88;54.91;94507.25;5016018;28;20193;-43
2023/04/29 02:34:52;;;;;;;0.50;0.50;;;15.80;70.30;;;15.88;54.87;94505.41;5033263;28;20200;-43
2023/04/29 02:37:20;;;;;;;0.55;0.55;;;15.80;71.30;;;15.88;55.38;94504.59;5016207;28;20210;-43
2023/04/29 02:39:47;;;;;;;0.50;0.50;;;15.90;70.40;;;15.89;54.96;94514.16;4999702;28;20291;-43
2023/04/29 02:42:14;;;;;;;0.50;0.50;;;15.80;70.40;;;15.89;54.99;94517.59;5033223;28;20196;-43
2023/04/29 02:44:41;;;;;;;0.55;0.55;;;15.80;70.40;;;15.88;55.32;94517.81;5015577;28;20693;-43
2023/04/29 02:47:08;;;;;;;0.50;0.50;;;15.80;70.40;;;15.88;54.88;94521.28;5015787;28;20354;-43
2023/04/29 02:49:35;;;;;;;0.50;0.50;;;15.80;70.30;;;15.88;54.89;94518.66;5015732;28;20231;-44
2023/04/29 02:52:03;;;;;;;0.50;0.50;;;15.80;70.30;;;15.89;55.36;94524.72;5015753;28;20623;-43
2023/04/29 02:54:31;;;;;;;0.50;0.50;;;15.80;70.30;;;15.89;55.02;94527.38;5015568;28;20228;-43
2023/04/29 02:56:58;;;;;;;0.60;0.60;;;15.80;70.40;;;15.89;54.95;94519.44;5031955;28;20282;-43
2023/04/29 02:59:25;;;;;;;0.50;0.50;;;15.80;70.30;;;15.90;55.32;94518.41;5032953;28;20207;-43
2023/04/29 03:01:53;;;;;;;0.50;0.50;;;15.80;71.30;;;15.88;54.86;94516.00;4999781;28;20211;-43
2023/04/29 03:04:20;;;;;;;0.50;0.50;;;15.80;70.40;;;15.88;55.12;94518.66;5015323;28;20657;-44
2023/04/29 03:06:48;;;;;;;0.50;0.50;;;15.80;70.30;;;15.87;55.29;94517.03;5032881;28;20250;-43
2023/04/29 03:09:15;;;;;;;0.50;0.50;;;15.80;70.40;;;15.88;54.86;94521.28;5015456;28;20193;-43
2023/04/29 03:11:45;;;;;;;0.60;0.60;;;15.80;70.40;;;15.87;55.23;94511.75;5015683;28;20196;-43
2023/04/29 03:14:12;;;;;;;0.50;0.50;;;15.80;70.40;;;15.88;55.32;94518.66;4999033;28;20227;-43
2023/04/29 03:16:39;;;;;;;0.50;0.50;;;15.80;70.40;;;15.88;55.40;94517.81;5015309;28;20204;-43
2023/04/29 03:19:06;;;;;;;0.60;0.60;;;15.80;70.40;;;15.88;55.32;94516.00;5032679;28;20206;-43
2023/04/29 03:21:33;;;;;;;0.45;0.45;;;15.80;70.40;;;15.88;55.05;94516.00;5032891;28;20650;-43
2023/04/29 03:24:00;;;;;;;0.50;0.50;;;15.80;70.40;;;15.87;55.27;94519.69;5032393;28;20707;-43
2023/04/29 03:26:32;;;;;;;0.50;0.50;;;15.80;70.40;;;15.88;55.39;94523.94;5015314;28;20229;-43
2023/04/29 03:28:59;;;;;;;0.50;0.50;;;15.80;70.40;;;15.88;55.24;94515.19;5015147;28;20253;-44
2023/04/29 03:31:26;;;;;;;0.50;0.50;;;15.80;70.50;;;15.88;55.30;94513.34;5015164;28;20196;-43
2023/04/29 03:33:53;;;;;;;0.43;0.43;;;15.80;70.50;;;15.88;55.23;94515.19;5032360;28;20195;-43
2023/04/29 03:36:22;;;;;;;0.50;0.50;;;15.80;70.50;;;15.87;54.97;94506.44;5015308;28;20235;-43
2023/04/29 03:39:05;;;;;;;0.60;0.60;;;15.80;70.50;;;15.87;55.41;94511.75;5015097;28;20654;-43
2023/04/29 03:41:32;;;;;;;0.60;0.60;;;15.80;70.50;;;15.87;55.22;94514.38;5032654;28;20220;-43
2023/04/29 03:43:59;;;;;;;0.70;0.70;;;15.80;70.40;;;15.88;55.07;94512.53;5032254;28;20654;-43
2023/04/29 03:46:28;;;;;;;0.50;0.50;;;15.80;70.50;;;15.87;55.23;94509.09;5015027;28;20207;-44
2023/04/29 03:48:55;;;;;;;0.50;0.50;;;15.80;70.50;;;15.87;55.42;94509.09;5014970;28;20196;-43
2023/04/29 03:51:24;;;;;;;0.50;0.50;;;15.80;70.50;;;15.88;55.46;94509.88;5014830;28;20291;-43
2023/04/29 03:53:56;;;;;;;0.50;0.50;;;15.80;70.50;;;15.87;55.37;94514.38;5014723;28;20621;-43
2023/04/29 03:56:25;;;;;;;0.60;0.60;;;15.80;70.50;;;15.85;55.38;94508.53;5014745;28;20204;-43
2023/04/29 03:58:52;;;;;;;0.57;0.57;;;15.80;70.50;;;15.88;55.56;94512.53;5014794;28;20200;-43
2023/04/29 04:01:22;;;;;;;0.60;0.60;;;15.80;70.50;;;15.87;55.49;94517.03;4999179;28;20203;-43
2023/04/29 04:03:49;;;;;;;0.50;0.50;;;15.80;70.50;;;15.87;55.12;94514.38;5014706;28;20216;-43
2023/04/29 04:06:16;;;;;;;0.50;0.50;;;15.80;70.50;;;15.88;55.21;94515.19;5031968;28;20238;-43
2023/04/29 04:08:44;;;;;;;0.50;0.50;;;15.80;70.40;;;15.87;55.12;94517.03;5014296;28;20619;-43
2023/04/29 04:11:18;;;;;;;0.50;0.50;;;15.80;70.50;;;15.86;55.15;94515.41;5014593;28;20207;-43
2023/04/29 04:13:50;;;;;;;0.50;0.50;;;15.80;70.50;;;15.87;55.41;94517.03;5014443;28;20193;-43
2023/04/29 04:16:18;;;;;;;0.50;0.50;;;15.80;70.50;;;15.87;55.54;94522.31;4998505;28;20212;-43
2023/04/29 04:18:45;;;;;;;0.40;0.40;;;15.80;70.50;;;15.87;55.47;94516.22;5015359;28;20243;-43
2023/04/29 04:21:13;;;;;;;0.50;0.50;;;15.80;70.50;;;15.87;55.02;94522.31;5014449;28;20202;-43
2023/04/29 04:23:44;;;;;;;0.50;0.50;;;15.80;70.50;;;15.87;55.12;94517.03;5014350;28;20216;-43
2023/04/29 04:26:17;;;;;;;0.60;0.60;;;15.80;70.50;;;15.86;55.29;94518.06;5014962;28;20699;-43
2023/04/29 04:29:01;;;;;;;0.50;0.50;;;15.80;70.50;;;15.86;55.50;94520.72;5014970;28;20287;-43
2023/04/29 04:31:37;;;;;;;0.50;0.50;;;15.80;70.50;;;15.86;55.63;94514.63;5014564;28;20634;-43
2023/04/29 04:34:06;;;;;;;0.60;0.60;;;15.80;70.50;;;15.86;55.53;94518.06;5014733;28;20566;-46
2023/04/29 04:36:34;;;;;;;0.52;0.52;;;15.80;70.60;;;15.86;55.24;94518.06;4998208;28;20323;-43
2023/04/29 04:39:01;;;;;;;0.55;0.55;;;15.90;70.70;;;15.88;55.64;94517.81;5031896;28;20612;-43
2023/04/29 04:41:30;;;;;;;0.55;0.55;;;15.80;70.60;;;15.87;55.30;94516.22;4998071;28;20518;-46
2023/04/29 04:43:58;;;;;;;0.68;0.68;;;15.80;70.60;;;15.87;55.61;94516.22;5014077;28;20216;-43
2023/04/29 04:46:45;;;;;;;0.50;0.50;;;15.80;70.60;;;15.86;55.56;94518.06;5021078;28;20240;-43
2023/04/29 04:49:26;;;;;;;0.50;0.50;;;15.80;70.60;;;15.85;55.45;94516.44;5014740;28;20188;-43
2023/04/29 04:51:54;;;;;;;0.70;0.70;;;15.80;70.60;;;15.85;55.71;94513.81;5014166;28;20200;-46
2023/04/29 04:54:21;;;;;;;0.60;0.60;;;15.80;70.60;;;15.87;55.34;94511.75;5014132;28;20203;-46
2023/04/29 04:56:53;;;;;;;0.50;0.50;;;15.90;70.70;;;15.85;55.41;94508.53;5014138;28;20200;-43
2023/04/29 04:59:20;;;;;;;0.50;0.50;;;15.80;70.60;;;15.88;55.38;94516.00;4997927;28;20207;-45
2023/04/29 05:01:47;;;;;;;0.50;0.50;;;15.80;70.70;;;15.88;55.71;94520.47;5014070;28;20548;-43
2023/04/29 05:04:15;;;;;;;0.50;0.50;;;15.80;70.60;;;15.89;55.42;94524.72;5013793;28;20220;-43
2023/04/29 05:06:42;;;;;;;0.50;0.50;;;15.80;70.70;;;15.89;55.16;94517.59;5010621;28;20573;-43
2023/04/29 05:09:09;;;;;;;0.60;0.60;;;15.80;70.70;;;15.90;55.61;94526.34;5010807;28;20207;-43
2023/04/29 05:11:37;;;;;;;0.50;0.50;;;15.80;70.60;;;15.91;55.75;94523.44;5010595;28;20602;-43
2023/04/29 05:14:09;;;;;;;0.50;0.50;;;15.80;70.70;;;15.90;55.52;94523.69;5011299;28;20285;-43
2023/04/29 05:16:36;;;;;;;0.50;0.50;;;15.80;70.70;;;15.91;55.54;94526.09;5010551;28;20617;-46
2023/04/29 05:19:03;;;;;;;0.50;0.50;;;15.80;70.70;;;15.91;55.54;94523.44;5011895;28;20658;-44
2023/04/29 05:21:34;;;;;;;0.55;0.55;;;15.80;70.70;;;15.91;55.46;94526.09;5013401;28;20201;-46
2023/04/29 05:24:01;;;;;;;0.50;0.50;;;15.90;70.80;;;15.92;55.83;94530.34;5013801;28;20227;-44
2023/04/29 05:26:28;;;;;;;0.50;0.50;;;15.90;70.70;;;15.92;55.42;94535.63;5014640;28;20220;-44
2023/04/29 05:29:00;;;;;;;0.50;0.50;;;15.90;70.70;;;15.93;55.83;94533.78;5013985;28;20225;-43
2023/04/29 05:31:30;;;;;;;0.60;0.60;;;15.90;70.80;;;15.94;55.36;94532.75;5014854;28;20540;-46
2023/04/29 05:34:02;;;;;;;0.50;0.50;;;15.90;70.80;;;15.93;55.39;94537.25;5014286;28;20197;-46
2023/04/29 05:36:30;;;;;;;0.50;0.50;;;15.90;70.80;;;15.93;55.71;94536.44;5014269;28;20284;-46
2023/04/29 05:38:57;;;;;;;0.50;0.50;;;15.90;70.80;;;15.95;55.48;94542.31;5014937;28;20193;-41
2023/04/29 05:41:25;;;;;;;0.50;0.50;;;15.90;70.80;;;15.95;55.94;94532.53;5013701;28;20201;-40
2023/04/29 05:44:01;;;;;;;0.40;0.40;;;15.90;70.90;;;15.96;55.61;94538.63;5014672;28;20204;-40
2023/04/29 05:46:30;;;;;;;0.60;0.60;;;15.90;70.90;;;15.96;55.86;94541.25;4997746;28;20197;-41
2023/04/29 05:48:58;;;;;;;0.50;0.50;;;15.90;70.70;;;15.98;55.80;94549.78;5013484;28;20219;-40
2023/04/29 05:51:27;;;;;;;0.50;0.50;;;15.90;70.80;;;15.97;55.66;94533.09;5014320;28;20193;-42
2023/04/29 05:53:54;;;;;;;0.50;0.50;;;16.00;70.90;;;15.99;55.94;94546.06;5014506;28;20197;-41
2023/04/29 05:56:22;;;;;;;0.50;0.50;;;15.90;70.90;;;15.99;55.87;94536.31;5013990;28;20291;-44
2023/04/29 05:58:49;;;;;;;0.50;0.50;;;15.90;70.80;;;16.00;55.81;94534.47;4997081;28;20553;-44
2023/04/29 06:01:17;;;;;;;0.60;0.60;;;15.90;70.80;;;16.00;55.74;94547.69;5014482;28;20262;-41
2023/04/29 06:03:45;;;;;;;0.50;0.50;;;16.00;70.90;;;16.02;55.82;94550.91;5013404;28;20207;-42
2023/04/29 06:06:35;;;;;;;0.50;0.50;;;15.90;70.90;;;16.00;55.71;94550.31;5021773;28;20223;-41
2023/04/29 06:09:14;;;;;;;0.60;0.60;;;16.00;70.90;;;16.03;56.10;94557.00;5016515;28;20200;-47
2023/04/29 06:11:54;;;;;;;0.45;0.45;;;16.00;70.90;;;16.00;56.13;94548.50;5016504;28;20547;-41
2023/04/29 06:14:22;;;;;;;0.50;0.50;;;16.00;70.90;;;16.05;55.68;94554.91;5033560;28;20525;-44
2023/04/29 06:16:49;;;;;;;0.45;0.45;;;16.00;70.90;;;16.05;55.36;94550.44;5016579;28;20203;-41
2023/04/29 06:19:16;;;;;;;0.50;0.50;;;16.00;70.90;;;16.04;55.70;94554.13;5019729;28;20219;-42
2023/04/29 06:21:43;;;;;;;0.50;0.50;;;16.00;71.00;;;16.04;55.68;94551.47;5019045;28;20242;-44
2023/04/29 06:24:11;;;;;;;0.50;0.50;;;16.00;71.00;;;16.04;56.26;94554.13;5044597;28;20212;-45
2023/04/29 06:26:38;;;;;;;0.50;0.50;;;16.00;71.10;;;16.02;55.98;94545.63;5048616;28;20192;-43
2023/04/29 06:29:05;;;;;;;0.52;0.52;;;16.00;71.20;;;16.02;56.19;94544.81;5033666;28;20188;-46
2023/04/29 06:31:34;;;;;;;0.60;0.60;;;16.00;71.30;;;16.02;56.20;94542.19;5032417;28;20243;-46
2023/04/29 06:34:03;;;;;;;0.52;0.52;;;16.00;71.30;;;16.02;56.18;94536.88;5049420;28;20296;-44
2023/04/29 06:36:32;;;;;;;0.70;0.70;;;16.00;71.50;;;16.05;56.44;94544.34;5015890;28;20208;-46
2023/04/29 06:39:17;;;;;;;0.50;0.50;;;16.10;71.70;;;16.04;56.97;94540.91;5016022;28;20189;-47
2023/04/29 06:42:10;;;;;;;0.50;0.50;;;16.10;71.70;;;16.07;56.84;94547.56;5043916;28;20214;-47
2023/04/29 06:44:50;;;;;;;0.50;0.50;;;16.10;71.70;;;16.09;56.59;94550.78;5033139;28;20287;-45
2023/04/29 06:47:43;;;;;;;0.60;0.60;;;16.10;71.90;;;16.09;56.86;94551.56;5036829;28;20640;-46
2023/04/29 06:50:12;;;;;;;0.40;0.40;;;16.10;72.00;;;16.11;57.28;94554.81;5023514;28;20196;-44
2023/04/29 06:52:39;;;;;;;0.50;0.50;;;16.10;72.00;;;16.14;56.96;94550.88;5025831;28;20290;-44
2023/04/29 06:55:10;;;;;;;0.50;0.50;;;16.10;72.10;;;16.16;56.93;94548.78;5053193;28;20615;-46
2023/04/29 06:57:37;;;;;;;0.50;0.50;;;16.20;72.20;;;16.17;57.73;94547.75;5034113;28;20218;-46
2023/04/29 07:00:06;;;;;;;0.50;0.50;;;16.20;72.30;;;16.19;57.35;94555.47;5039759;28;20208;-45
2023/04/29 07:02:34;;;;;;;0.50;0.50;;;16.20;72.30;;;16.20;57.78;94563.16;5013216;28;20197;-45
2023/04/29 07:05:07;;;;;;;0.50;0.50;;;16.20;73.20;;;16.23;57.44;94556.59;4996154;28;20862;-44
2023/04/29 07:07:35;;;;;;;0.50;0.50;;;16.30;72.50;;;16.26;57.76;94564.03;5028433;28;20251;-46
2023/04/29 07:10:02;;;;;;;0.50;0.50;;;16.20;72.50;;;16.28;57.35;94562.78;5013533;28;20280;-45
2023/04/29 07:12:29;;;;;;;0.45;0.45;;;16.30;72.50;;;16.30;57.43;94563.34;5013406;28;20197;-45
2023/04/29 07:14:57;;;;;;;0.50;0.50;;;16.30;72.50;;;16.32;57.38;94563.91;5013699;28;20694;-50
2023/04/29 07:17:25;;;;;;;0.60;0.60;;;16.30;72.50;;;16.36;57.57;94568.75;5013091;28;20287;-46
2023/04/29 07:19:52;;;;;;;0.50;0.50;;;16.30;72.50;;;16.39;57.33;94563.75;4979647;28;20655;-45
2023/04/29 07:22:20;;;;;;;0.60;0.60;;;16.40;72.60;;;16.41;57.37;94563.53;4995743;28;20257;-45
2023/04/29 07:24:47;;;;;;;0.50;0.50;;;16.40;72.60;;;16.41;57.95;94561.69;5012877;28;20220;-45
2023/04/29 07:27:14;;;;;;;0.50;0.50;;;16.40;72.60;;;16.44;57.56;94557.75;4995547;28;20205;-46
2023/04/29 07:29:41;;;;;;;0.50;0.50;;;16.50;72.70;;;16.46;57.97;94558.34;5028313;28;20200;-46
2023/04/29 07:32:08;;;;;;;0.57;0.57;;;16.50;72.70;;;16.48;57.60;94554.41;5076355;27;20192;-47
2023/04/29 07:34:37;;;;;;;0.50;0.50;;;16.50;72.70;;;16.51;57.63;94562.94;5118384;27;20201;-44
2023/04/29 07:37:03;;;;;;;0.60;0.60;;;16.50;72.70;;;16.53;57.81;94572.25;5137382;27;20185;-45
2023/04/29 07:39:31;;;;;;;0.50;0.50;;;16.50;72.70;;;16.54;58.08;94552.66;5118378;27;20288;-45
2023/04/29 07:41:58;;;;;;;0.60;0.60;;;16.50;72.70;;;16.57;57.56;94565.41;5118288;27;20210;-45
2023/04/29 07:44:27;;;;;;;0.50;0.50;;;16.60;72.70;;;16.58;57.82;94559.09;5117769;27;20212;-46
2023/04/29 07:46:54;;;;;;;0.50;0.50;;;16.60;72.80;;;16.60;57.40;94567.59;5136367;27;20215;-45
2023/04/29 07:49:22;;;;;;;0.50;0.50;;;16.60;72.70;;;16.62;57.49;94573.47;5101780;27;20214;-45
2023/04/29 07:51:49;;;;;;;0.50;0.50;;;16.60;72.70;;;16.63;58.05;94575.06;5118256;27;20628;-45
2023/04/29 07:54:18;;;;;;;0.50;0.50;;;16.60;72.70;;;16.63;57.96;94574.25;5136325;27;20268;-46
2023/04/29 07:56:45;;;;;;;0.50;0.50;;;16.60;72.60;;;16.63;57.78;94584.84;5136487;27;20195;-46
2023/04/29 07:59:12;;;;;;;0.60;0.60;;;16.60;72.60;;;16.63;57.71;94577.69;5136129;27;20195;-45
2023/04/29 08:01:41;;;;;;;0.50;0.50;;;16.70;72.60;;;16.64;57.54;94575.88;5118006;28;20627;-45
2023/04/29 08:04:08;;;;;;;0.40;0.40;;;16.70;72.70;;;16.67;57.69;94575.38;5136275;27;20192;-45
2023/04/29 08:06:46;;;;;;;0.60;0.60;;;16.70;72.80;;;16.69;57.69;94575.16;5118260;28;20574;-44
2023/04/29 08:09:13;;;;;;;0.50;0.50;;;16.70;72.80;;;16.73;58.17;94579.72;5117880;28;20196;-46
2023/04/29 08:11:42;;;;;;;0.50;0.50;;;16.70;72.90;;;16.76;57.84;94589.03;5118153;28;20300;-45
2023/04/29 08:14:11;;;;;;;0.43;0.43;;;16.70;72.90;;;16.78;57.81;94581.66;5085341;28;20188;-45
2023/04/29 08:16:39;;;;;;;0.50;0.50;;;16.80;73.00;;;16.83;57.81;94591.53;5117607;28;20308;-48
2023/04/29 08:19:06;;;;;;;0.50;0.50;;;16.80;73.00;;;16.86;58.33;94577.84;5117823;28;20626;-45
2023/04/29 08:21:33;;;;;;;0.50;0.50;;;16.80;73.00;;;16.89;58.32;94583.44;5135853;28;20189;-46
2023/04/29 08:24:00;;;;;;;0.50;0.50;;;16.90;73.10;;;16.93;57.82;94583.78;5135889;28;20195;-47
2023/04/29 08:26:28;;;;;;;0.50;0.50;;;16.90;73.10;;;16.95;57.69;94576.41;5135421;28;20615;-47
2023/04/29 08:28:55;;;;;;;0.50;0.50;;;16.90;73.10;;;17.00;58.21;94581.78;5049577;28;20615;-46
2023/04/29 08:31:22;;;;;;;0.50;0.50;;;17.00;73.10;;;17.04;58.06;94580.28;5043016;28;20196;-46
2023/04/29 08:33:49;;;;;;;0.60;0.60;;;17.00;73.10;;;17.08;58.38;94577.97;5042726;28;20229;-46
2023/04/29 08:36:16;;;;;;;0.50;0.50;;;17.00;73.10;;;17.10;58.08;94581.97;5049307;28;20199;-46
2023/04/29 08:38:43;;;;;;;0.50;0.50;;;17.00;73.10;;;17.15;57.58;94589.19;5044235;28;20192;-47
2023/04/29 08:41:10;;;;;;;0.52;0.52;;;17.10;73.00;;;17.17;57.61;94591.59;5046170;28;20196;-47
2023/04/29 08:43:41;;;;;;;0.50;0.50;;;17.10;72.90;;;17.19;57.65;94589.53;5051804;28;20278;-46
2023/04/29 08:46:09;;;;;;;0.47;0.47;;;17.10;72.80;;;17.22;57.96;94591.69;5049764;28;20211;-45
2023/04/29 08:48:38;;;;;;;0.43;0.43;;;17.20;72.90;;;17.24;57.62;94587.75;5046155;28;20195;-50
2023/04/29 08:51:12;;;;;;;0.50;0.50;;;17.20;72.90;;;17.27;58.01;94579.31;5021502;28;20202;-48
2023/04/29 08:53:39;;;;;;;0.50;0.50;;;17.20;72.90;;;17.31;57.72;94597.38;5051717;28;20617;-45
2023/04/29 08:56:21;;;;;;;0.50;0.50;;;17.20;72.80;;;17.32;57.89;94596.34;5053545;28;20191;-45
2023/04/29 08:58:53;;;;;;;0.50;0.50;;;17.30;72.90;;;17.34;57.85;94581.00;5015424;28;20181;-46
2023/04/29 09:01:23;;;;;;;0.50;0.50;;;17.30;72.80;;;17.36;57.32;94592.19;4999026;28;20250;-45
2023/04/29 09:04:03;;;;;;;0.50;0.50;;;17.30;72.70;;;17.39;57.70;94591.66;5026277;28;20566;-48
2023/04/29 09:06:32;;;;;;;0.50;0.50;;;17.30;72.60;;;17.39;57.55;94595.16;5036410;28;20713;-47
2023/04/29 09:09:01;;;;;;;0.50;0.50;;;17.30;72.60;;;17.41;57.45;94590.38;5036664;28;20203;-48
2023/04/29 09:11:30;;;;;;;0.50;0.50;;;17.40;72.70;;;17.44;57.59;94589.91;5039664;28;20572;-48
2023/04/29 09:14:01;;;;;;;0.52;0.52;;;17.40;72.70;;;17.46;57.30;94589.66;5018075;28;20565;-48
2023/04/29 09:16:28;;;;;;;0.45;0.45;;;17.40;72.70;;;17.47;57.09;94579.84;5044333;28;20265;-46
2023/04/29 09:18:56;;;;;;;0.50;0.50;;;17.40;72.60;;;17.48;57.25;94579.63;5027098;28;20207;-46
2023/04/29 09:21:28;;;;;;;0.43;0.43;;;17.40;72.60;;;17.49;57.71;94577.75;5040189;28;20198;-45
2023/04/29 09:24:01;;;;;;;0.50;0.50;;;17.40;72.60;;;17.52;57.69;94579.94;5054928;28;20531;-46
2023/04/29 09:26:41;;;;;;;0.50;0.50;;;17.40;72.60;;;17.53;57.80;94579.69;5041269;28;20270;-45
2023/04/29 09:29:12;;;;;;;0.45;0.45;;;17.50;72.80;;;17.55;57.53;94572.31;5048910;28;20236;-47
2023/04/29 09:31:40;;;;;;;0.45;0.45;;;17.50;72.80;;;17.59;57.59;94572.63;5054510;28;20236;-46
2023/04/29 09:34:08;;;;;;;0.50;0.50;;;17.50;72.80;;;17.61;57.32;94570.50;5054968;28;20671;-46
2023/04/29 09:36:46;;;;;;;0.40;0.40;;;17.50;72.70;;;17.63;57.48;94578.25;5052921;28;20216;-41
2023/04/29 09:39:18;;;;;;;0.50;0.50;;;17.60;72.80;;;17.65;57.16;94570.81;5036021;28;20209;-47
2023/04/29 09:41:51;;;;;;;0.50;0.50;;;17.60;72.80;;;17.67;57.37;94569.53;5039621;28;20641;-48
2023/04/29 09:44:21;;;;;;;0.50;0.50;;;17.60;72.80;;;17.68;57.38;94568.47;4997553;28;20261;-47
2023/04/29 09:47:06;;;;;;;0.50;0.50;;;17.60;72.70;;;17.71;57.67;94577.81;5026034;28;20272;-47
2023/04/29 09:49:51;;;;;;;0.57;0.57;;;17.70;72.70;;;17.70;57.64;94579.66;5048571;28;20199;-47
2023/04/29 09:52:19;;;;;;;0.50;0.50;;;17.70;72.50;;;17.72;57.57;94584.72;5043909;28;20196;-47
2023/04/29 09:54:46;;;;;;;0.40;0.40;;;17.70;72.50;;;17.72;57.38;94590.84;5031512;28;20196;-50
2023/04/29 09:57:17;;;;;;;0.43;0.43;;;17.70;72.50;;;17.74;57.05;94591.38;5031666;28;20211;-47
2023/04/29 09:59:45;;;;;;;0.40;0.40;;;17.70;72.40;;;17.75;57.42;94597.50;5023558;28;20204;-49
2023/04/29 10:02:18;;;;;;;0.40;0.40;;;17.70;72.40;;;17.76;56.97;94593.81;5052210;28;20556;-50
2023/04/29 10:04:47;;;;;;;0.50;0.50;;;17.70;72.30;;;17.76;57.17;94601.75;5046661;28;20710;-50
2023/04/29 10:07:17;;;;;;;0.50;0.50;;;17.70;72.40;;;17.77;57.30;94598.03;5026444;28;20666;-43
2023/04/29 10:09:46;;;;;;;0.50;0.50;;;17.70;72.40;;;17.79;57.37;94601.25;5047620;28;20204;-46
2023/04/29 10:12:19;;;;;;;0.50;0.50;;;17.70;72.50;;;17.80;57.23;94584.31;5037287;28;20243;-44
2023/04/29 10:15:17;;;;;;;0.50;0.50;;;17.70;72.60;;;17.81;57.10;94577.94;5053730;28;20191;-46
2023/04/29 10:18:20;;;;;;;0.40;0.40;;;17.80;72.60;;;17.83;57.05;94580.34;5036315;28;20641;-45
2023/04/29 10:20:49;;;;;;;0.45;0.45;;;17.80;72.70;;;17.86;57.68;94575.34;5053572;28;20191;-45
2023/04/29 10:23:18;;;;;;;0.47;0.47;;;17.80;72.80;;;17.90;57.77;94565.06;5053644;28;20556;-45
2023/04/29 10:25:47;;;;;;;0.50;0.50;;;17.80;72.90;;;17.93;57.89;94562.72;5053562;28;20557;-45
2023/04/29 10:28:18;;;;;;;0.47;0.47;;;17.90;73.00;;;17.97;57.71;94565.72;5036087;28;20699;-45
2023/04/29 10:30:50;;;;;;;0.60;0.60;;;17.90;73.00;;;18.01;57.52;94564.16;5036950;28;20203;-46
2023/04/29 10:33:18;;;;;;;0.40;0.40;;;17.90;73.00;;;18.04;57.47;94563.69;5053810;28;20191;-44
2023/04/29 10:35:48;;;;;;;0.40;0.40;;;17.90;73.00;;;18.09;57.33;94560.28;5016883;28;20209;-44